Newberne, West Virginia
Current Conditions -  °F | °C
As of 6:53 AM on Thursday 29 Jan 2015 (Local Time) from KPKB Reporting Station
Clear Clear  
Wind Chill: 26°   Ceiling: Unl
Heat Index: 31°   Visibility: 10mi
Dew Point: 15°   Wind: 5mph
Humidity: 52%   Direction: 170°S
Pressure: 30.07"   Gusts: NA
Location:  39.1565°N, 81.0304°W
Report Text: KPKB 291153Z 17004KT 10SM CLR M01/M09 A3007 RMK AO2 SLP192 T10061094 11006 21050 56033
Loading
Personal Weather Stations






























Interactive Weather Map New forecast layout! Learn more

10-Day Weather Forecast

Advertisements
Track Severe Weather on mobile